Time;durP1;ratioP1;P1;durP2;ratioP2;P2;SDS_P1;SDS_P2;PMS_P1;PMS_P2;Temp;Humidity;BMP_temperature;BMP_pressure;BME280_temperature;BME280_humidity;BME280_pressure;Samples;Min_cycle;Max_cycle;Signal;HPM_P1;HPM_P2
2022/08/04 00:02:03;;;;;;;;;;;17.70;99.90;;;;;;5059955;28;19908;-73
2022/08/04 00:04:36;;;;;;;;;;;17.80;99.90;;;;;;5049535;28;19913;-73
2022/08/04 00:07:06;;;;;;;;;;;17.70;99.90;;;;;;5054101;28;19909;-73
2022/08/04 00:09:38;;;;;;;;;;;17.70;99.90;;;;;;5053644;28;19916;-73
2022/08/04 00:12:05;;;;;;;;;;;17.70;99.90;;;;;;5053447;28;20263;-73
2022/08/04 00:14:34;;;;;;;;;;;17.60;99.90;;;;;;5053438;28;19909;-73
2022/08/04 00:17:02;;;;;;;;;;;17.60;99.90;;;;;;5053627;28;19939;-72
2022/08/04 00:19:30;;;;;;;;;;;17.50;99.90;;;;;;5053729;28;19967;-72
2022/08/04 00:21:59;;;;;;;;;;;17.50;99.90;;;;;;5053218;28;20386;-73
2022/08/04 00:24:25;;;;;;;;;;;17.60;99.90;;;;;;5053084;28;19913;-72
2022/08/04 00:26:53;;;;;;;;;;;17.60;99.90;;;;;;5052395;28;19909;-73
2022/08/04 00:29:20;;;;;;;;;;;17.60;99.90;;;;;;5053567;28;20270;-73
2022/08/04 00:31:45;;;;;;;;;;;17.60;99.90;;;;;;5048133;28;20281;-73
2022/08/04 00:34:12;;;;;;;;;;;17.60;99.90;;;;;;5052864;28;19909;-73
2022/08/04 00:36:39;;;;;;;;;;;17.60;99.90;;;;;;5053094;28;20441;-73
2022/08/04 00:39:05;;;;;;;;;;;17.50;99.90;;;;;;5053528;28;20468;-73
2022/08/04 00:41:33;;;;;;;;;;;17.70;99.90;;;;;;5052835;28;19952;-73
2022/08/04 00:43:59;;;;;;;;;;;17.70;99.90;;;;;;5052540;28;20361;-73
2022/08/04 00:46:54;;;;;;;;;;;17.70;99.90;;;;;;5051805;28;19909;-73
2022/08/04 00:49:29;;;;;;;;;;;17.70;99.90;;;;;;5028153;28;19917;-73
2022/08/04 00:52:10;;;;;;;;;;;17.60;99.90;;;;;;5045785;28;19909;-73
2022/08/04 00:54:35;;;;;;;;;;;17.50;99.90;;;;;;5052713;28;19909;-73
2022/08/04 00:57:09;;;;;;;;;;;17.40;99.90;;;;;;5053147;28;19913;-73
2022/08/04 00:59:38;;;;;;;;;;;17.30;99.90;;;;;;5051359;28;19916;-73
2022/08/04 01:02:22;;;;;;;;;;;17.30;99.90;;;;;;5055944;28;20286;-73
2022/08/04 01:05:16;;;;;;;;;;;17.20;99.90;;;;;;5046679;28;19913;-73
2022/08/04 01:07:42;;;;;;;;;;;17.10;99.90;;;;;;5046936;28;19917;-73
2022/08/04 01:10:25;;;;;;;;;;;17.10;99.90;;;;;;5052680;28;20012;-74
2022/08/04 01:13:09;;;;;;;;;;;17.10;99.90;;;;;;5052313;28;20247;-73
2022/08/04 01:15:35;;;;;;;;;;;17.20;99.90;;;;;;5047979;28;20107;-74
2022/08/04 01:18:01;;;;;;;;;;;17.10;99.90;;;;;;5052577;28;19948;-74
2022/08/04 01:20:31;;;;;;;;;;;17.00;99.90;;;;;;5052474;28;19909;-73
2022/08/04 01:23:17;;;;;;;;;;;17.00;99.90;;;;;;5052044;28;19913;-73
2022/08/04 01:25:57;;;;;;;;;;;17.00;99.90;;;;;;5051716;28;19935;-73
2022/08/04 01:28:23;;;;;;;;;;;17.00;99.90;;;;;;5052722;28;19983;-74
2022/08/04 01:30:50;;;;;;;;;;;17.00;99.90;;;;;;5053158;28;20380;-73
2022/08/04 01:33:16;;;;;;;;;;;16.90;99.90;;;;;;5051254;28;19915;-73
2022/08/04 01:35:48;;;;;;;;;;;16.90;99.90;;;;;;5052443;28;19909;-73
2022/08/04 01:38:22;;;;;;;;;;;16.80;99.90;;;;;;5052519;28;19909;-74
2022/08/04 01:40:51;;;;;;;;;;;16.80;99.90;;;;;;5046357;28;19912;-73
2022/08/04 01:43:16;;;;;;;;;;;16.80;99.90;;;;;;5051032;28;20058;-73
2022/08/04 01:45:44;;;;;;;;;;;16.80;99.90;;;;;;5052192;28;19959;-73
2022/08/04 01:48:11;;;;;;;;;;;16.80;99.90;;;;;;5051756;28;19955;-73
2022/08/04 01:50:38;;;;;;;;;;;16.70;99.90;;;;;;5050777;28;19924;-73
2022/08/04 01:53:04;;;;;;;;;;;16.70;99.90;;;;;;5051821;28;20286;-73
2022/08/04 01:55:29;;;;;;;;;;;16.60;99.90;;;;;;5051922;28;19909;-73
2022/08/04 01:57:56;;;;;;;;;;;16.50;99.90;;;;;;5045169;28;19920;-74
2022/08/04 02:00:25;;;;;;;;;;;16.50;99.90;;;;;;5052318;28;19916;-73
2022/08/04 02:02:51;;;;;;;;;;;16.40;99.90;;;;;;5046031;28;19908;-73
2022/08/04 02:05:19;;;;;;;;;;;16.40;99.90;;;;;;5044906;28;19909;-73
2022/08/04 02:08:03;;;;;;;;;;;16.50;99.90;;;;;;5045428;28;19917;-74
2022/08/04 02:10:32;;;;;;;;;;;16.40;99.90;;;;;;5051676;28;20115;-73
2022/08/04 02:13:01;;;;;;;;;;;16.40;99.90;;;;;;5053686;28;20397;-73
2022/08/04 02:15:33;;;;;;;;;;;16.40;99.90;;;;;;5055954;28;19967;-74
2022/08/04 02:18:02;;;;;;;;;;;16.40;99.90;;;;;;5051401;28;19913;-73
2022/08/04 02:20:36;;;;;;;;;;;16.40;99.90;;;;;;5051294;28;19982;-73
2022/08/04 02:23:03;;;;;;;;;;;16.50;99.90;;;;;;5050862;28;20003;-73
2022/08/04 02:25:33;;;;;;;;;;;16.40;99.90;;;;;;5050691;28;19916;-73
2022/08/04 02:28:04;;;;;;;;;;;16.40;99.90;;;;;;5051415;28;19908;-73
2022/08/04 02:30:34;;;;;;;;;;;16.30;99.90;;;;;;5051393;28;19941;-73
2022/08/04 02:33:01;;;;;;;;;;;16.30;99.90;;;;;;5050692;28;20273;-73
2022/08/04 02:35:27;;;;;;;;;;;16.30;99.90;;;;;;5050529;28;19908;-73
2022/08/04 02:38:03;;;;;;;;;;;16.30;99.90;;;;;;5050395;28;20186;-73
2022/08/04 02:40:29;;;;;;;;;;;16.30;99.90;;;;;;5044905;28;19909;-73
2022/08/04 02:42:56;;;;;;;;;;;16.20;99.90;;;;;;5050935;28;19954;-73
2022/08/04 02:45:21;;;;;;;;;;;16.20;99.90;;;;;;5050593;28;20344;-73
2022/08/04 02:47:48;;;;;;;;;;;16.10;99.90;;;;;;5050875;28;19908;-73
2022/08/04 02:50:13;;;;;;;;;;;16.00;99.90;;;;;;5051207;28;19997;-73
2022/08/04 02:52:40;;;;;;;;;;;16.00;99.90;;;;;;5050673;28;20285;-73
2022/08/04 02:55:07;;;;;;;;;;;16.00;99.90;;;;;;5049405;28;19916;-72
2022/08/04 02:57:33;;;;;;;;;;;16.00;99.90;;;;;;5050948;28;20289;-73
2022/08/04 03:00:06;;;;;;;;;;;16.10;99.90;;;;;;5050661;28;20042;-73
2022/08/04 03:02:50;;;;;;;;;;;16.20;99.90;;;;;;5054244;28;20285;-72
2022/08/04 03:05:18;;;;;;;;;;;16.10;99.90;;;;;;5049164;28;19909;-73
2022/08/04 03:07:49;;;;;;;;;;;16.10;99.90;;;;;;5050609;28;19932;-73
2022/08/04 03:10:33;;;;;;;;;;;16.00;99.90;;;;;;5051139;28;20435;-73
2022/08/04 03:13:08;;;;;;;;;;;16.10;99.90;;;;;;5048761;28;19952;-73
2022/08/04 03:15:39;;;;;;;;;;;16.00;99.90;;;;;;5050981;28;19944;-73
2022/08/04 03:18:23;;;;;;;;;;;15.90;99.90;;;;;;5049437;28;19948;-73
2022/08/04 03:21:04;;;;;;;;;;;15.90;99.90;;;;;;5046492;28;19971;-73
2022/08/04 03:23:48;;;;;;;;;;;15.70;99.90;;;;;;5049943;28;19915;-73
2022/08/04 03:26:32;;;;;;;;;;;15.60;99.90;;;;;;5051218;28;19916;-73
2022/08/04 03:29:09;;;;;;;;;;;15.60;99.90;;;;;;5046207;28;19912;-73
2022/08/04 03:31:41;;;;;;;;;;;15.70;99.90;;;;;;5050285;28;20297;-73
2022/08/04 03:34:33;;;;;;;;;;;15.70;99.90;;;;;;5050261;28;20346;-73
2022/08/04 03:37:13;;;;;;;;;;;15.70;99.90;;;;;;5045070;28;20336;-73
2022/08/04 03:39:48;;;;;;;;;;;15.80;99.90;;;;;;5050916;28;19909;-73
2022/08/04 03:42:31;;;;;;;;;;;15.80;99.90;;;;;;5050508;28;19928;-73
2022/08/04 03:44:56;;;;;;;;;;;15.70;99.90;;;;;;5050523;28;19916;-73
2022/08/04 03:47:40;;;;;;;;;;;15.70;99.90;;;;;;5050822;28;19908;-73
2022/08/04 03:50:09;;;;;;;;;;;15.70;99.90;;;;;;5053849;28;19916;-73
2022/08/04 03:55:37;;;;;;;;;;;16.10;99.90;;;;;;5053767;28;19919;-73
2022/08/04 03:58:20;;;;;;;;;;;16.10;99.90;;;;;;5054410;28;19913;-73
2022/08/04 04:00:54;;;;;;;;;;;16.00;99.90;;;;;;5054164;28;20001;-73
2022/08/04 04:03:39;;;;;;;;;;;16.00;99.90;;;;;;5055145;28;19916;-73
2022/08/04 04:06:23;;;;;;;;;;;15.90;99.90;;;;;;5052909;28;19961;-73
2022/08/04 04:09:07;;;;;;;;;;;15.90;99.90;;;;;;5053706;28;19921;-73
2022/08/04 04:11:35;;;;;;;;;;;15.90;99.90;;;;;;5048999;28;20066;-73
2022/08/04 04:14:13;;;;;;;;;;;15.80;99.90;;;;;;5053595;28;20008;-73
2022/08/04 04:16:44;;;;;;;;;;;15.80;99.90;;;;;;5053837;28;19917;-73
2022/08/04 04:19:28;;;;;;;;;;;15.80;99.90;;;;;;5053594;28;19935;-73
2022/08/04 04:21:59;;;;;;;;;;;15.80;99.90;;;;;;5053466;28;19920;-73
2022/08/04 04:24:33;;;;;;;;;;;15.80;99.90;;;;;;5053315;28;19909;-73
2022/08/04 04:27:05;;;;;;;;;;;15.90;99.90;;;;;;5043988;28;19909;-73
2022/08/04 04:29:31;;;;;;;;;;;15.90;99.90;;;;;;5053791;28;19909;-73
2022/08/04 04:32:14;;;;;;;;;;;15.90;99.90;;;;;;5049288;28;20004;-73
2022/08/04 04:34:48;;;;;;;;;;;15.90;99.90;;;;;;5052691;28;20298;-73
2022/08/04 04:37:33;;;;;;;;;;;16.00;99.90;;;;;;5053169;28;19913;-73
2022/08/04 04:40:12;;;;;;;;;;;16.10;99.90;;;;;;5032341;28;19913;-74
2022/08/04 04:42:58;;;;;;;;;;;16.10;99.90;;;;;;5038028;28;20326;-74
2022/08/04 04:45:25;;;;;;;;;;;16.10;99.90;;;;;;5052732;28;19919;-74
2022/08/04 04:47:54;;;;;;;;;;;16.10;99.90;;;;;;5052692;28;19909;-74
2022/08/04 04:50:25;;;;;;;;;;;16.10;99.90;;;;;;5053175;28;19913;-74
2022/08/04 04:53:01;;;;;;;;;;;16.20;99.90;;;;;;5047724;28;19923;-74
2022/08/04 04:55:30;;;;;;;;;;;16.20;99.90;;;;;;5041303;28;19924;-74
2022/08/04 04:57:57;;;;;;;;;;;16.30;99.90;;;;;;5046146;28;19920;-74
2022/08/04 05:00:25;;;;;;;;;;;16.40;99.90;;;;;;5054340;28;19931;-74
2022/08/04 05:03:00;;;;;;;;;;;16.50;99.90;;;;;;5053330;28;19909;-75
2022/08/04 05:05:28;;;;;;;;;;;16.50;99.90;;;;;;5046367;28;20424;-75
2022/08/04 05:08:12;;;;;;;;;;;16.60;99.90;;;;;;5052265;28;20359;-75
2022/08/04 05:10:38;;;;;;;;;;;16.80;99.90;;;;;;5052627;28;20325;-75
2022/08/04 05:13:22;;;;;;;;;;;16.80;99.90;;;;;;5052116;28;19919;-75
2022/08/04 05:15:50;;;;;;;;;;;16.90;99.90;;;;;;5052479;28;20369;-75
2022/08/04 05:18:23;;;;;;;;;;;17.00;99.90;;;;;;5051403;28;20313;-75
2022/08/04 05:20:55;;;;;;;;;;;17.00;99.90;;;;;;5049198;28;19952;-75
2022/08/04 05:23:23;;;;;;;;;;;17.10;99.90;;;;;;5043527;28;19945;-75
2022/08/04 05:25:59;;;;;;;;;;;17.30;99.90;;;;;;5047628;28;20428;-75
2022/08/04 05:28:43;;;;;;;;;;;17.30;99.90;;;;;;5053201;28;19944;-75
2022/08/04 05:31:17;;;;;;;;;;;17.50;99.90;;;;;;5050813;28;19934;-75
2022/08/04 05:33:48;;;;;;;;;;;17.60;99.90;;;;;;5050397;28;19955;-75
2022/08/04 05:36:18;;;;;;;;;;;17.80;99.90;;;;;;5057984;28;20290;-75
2022/08/04 05:38:44;;;;;;;;;;;18.00;99.90;;;;;;5052224;28;19909;-73
2022/08/04 05:41:11;;;;;;;;;;;18.10;99.90;;;;;;5052100;28;19915;-73
2022/08/04 05:43:40;;;;;;;;;;;18.20;99.90;;;;;;5049569;28;20597;-73
2022/08/04 05:46:07;;;;;;;;;;;18.30;99.90;;;;;;5051828;28;19909;-73
2022/08/04 05:48:33;;;;;;;;;;;18.40;99.90;;;;;;5051777;28;19909;-74
2022/08/04 05:50:59;;;;;;;;;;;18.50;99.90;;;;;;5049122;28;19978;-74
2022/08/04 05:53:26;;;;;;;;;;;18.40;99.90;;;;;;5050988;28;20266;-74
2022/08/04 05:55:51;;;;;;;;;;;18.70;99.90;;;;;;5051663;28;19909;-74
2022/08/04 05:58:18;;;;;;;;;;;18.70;99.90;;;;;;5051541;28;19915;-74
2022/08/04 06:00:44;;;;;;;;;;;18.80;99.90;;;;;;5046699;28;19909;-74
2022/08/04 06:03:10;;;;;;;;;;;19.00;99.90;;;;;;5049945;28;19908;-74
2022/08/04 06:05:37;;;;;;;;;;;19.10;99.90;;;;;;5040310;28;20546;-74
2022/08/04 06:08:03;;;;;;;;;;;19.30;99.90;;;;;;5050659;28;20397;-74
2022/08/04 06:10:31;;;;;;;;;;;19.40;99.90;;;;;;5051529;28;19909;-74
2022/08/04 06:13:00;;;;;;;;;;;19.50;99.90;;;;;;5050373;28;20656;-74
2022/08/04 06:15:26;;;;;;;;;;;19.80;99.90;;;;;;5050398;28;19916;-74
2022/08/04 06:17:55;;;;;;;;;;;19.80;99.90;;;;;;5050738;28;20011;-74
2022/08/04 06:20:24;;;;;;;;;;;20.00;99.90;;;;;;5050871;28;19982;-74
2022/08/04 06:22:54;;;;;;;;;;;20.00;99.90;;;;;;5049769;28;19909;-74
2022/08/04 06:25:22;;;;;;;;;;;20.30;99.90;;;;;;5050154;28;19912;-74
2022/08/04 06:27:48;;;;;;;;;;;20.60;99.90;;;;;;5050437;28;19909;-74
2022/08/04 06:30:15;;;;;;;;;;;20.70;99.90;;;;;;5050386;28;20287;-74
2022/08/04 06:32:47;;;;;;;;;;;20.70;99.90;;;;;;5044586;28;19915;-74
2022/08/04 06:35:17;;;;;;;;;;;20.80;99.90;;;;;;5059940;28;20296;-74
2022/08/04 06:37:44;;;;;;;;;;;20.90;99.90;;;;;;5050343;28;19967;-74
2022/08/04 06:40:11;;;;;;;;;;;21.10;99.90;;;;;;5051122;28;19909;-74
2022/08/04 06:42:37;;;;;;;;;;;21.30;99.90;;;;;;5050324;28;19909;-74
2022/08/04 06:45:04;;;;;;;;;;;21.60;99.90;;;;;;5049924;28;19909;-74
2022/08/04 06:47:30;;;;;;;;;;;21.80;99.90;;;;;;5050294;28;19916;-74
2022/08/04 06:49:55;;;;;;;;;;;21.80;99.90;;;;;;5049760;28;19951;-74
2022/08/04 06:52:21;;;;;;;;;;;22.00;99.90;;;;;;5049970;28;19913;-75
2022/08/04 06:54:47;;;;;;;;;;;22.20;99.90;;;;;;5049566;28;19909;-74
2022/08/04 06:57:14;;;;;;;;;;;22.30;99.90;;;;;;5050337;28;19968;-74
2022/08/04 06:59:50;;;;;;;;;;;22.40;99.90;;;;;;5049780;28;19908;-74
2022/08/04 07:02:24;;;;;;;;;;;22.90;99.90;;;;;;5049111;28;19909;-74
2022/08/04 07:04:50;;;;;;;;;;;23.10;99.90;;;;;;5041993;28;19908;-74
2022/08/04 07:07:16;;;;;;;;;;;23.30;99.90;;;;;;5042401;28;19916;-74
2022/08/04 07:09:42;;;;;;;;;;;23.90;99.90;;;;;;5050259;28;20175;-74
2022/08/04 07:12:08;;;;;;;;;;;24.60;99.90;;;;;;5050180;28;20559;-74
2022/08/04 07:14:36;;;;;;;;;;;25.10;99.90;;;;;;5049382;28;19909;-74
2022/08/04 07:17:06;;;;;;;;;;;25.70;99.90;;;;;;5050442;28;20022;-75
2022/08/04 07:19:32;;;;;;;;;;;26.40;99.90;;;;;;5043194;28;20380;-75
2022/08/04 07:22:01;;;;;;;;;;;26.30;99.90;;;;;;5049838;28;19999;-75
2022/08/04 07:24:31;;;;;;;;;;;27.30;99.70;;;;;;5039684;28;19951;-75
2022/08/04 07:26:56;;;;;;;;;;;28.00;98.20;;;;;;5048911;28;20308;-75
2022/08/04 07:29:22;;;;;;;;;;;28.80;95.80;;;;;;5042316;28;19968;-75
2022/08/04 07:31:48;;;;;;;;;;;29.70;91.50;;;;;;5051442;28;20329;-74
2022/08/04 07:34:14;;;;;;;;;;;29.70;92.30;;;;;;5057716;28;19909;-74
2022/08/04 07:36:39;;;;;;;;;;;30.30;84.50;;;;;;5054285;28;19936;-75
2022/08/04 07:39:05;;;;;;;;;;;30.50;84.30;;;;;;5053359;28;19909;-75
2022/08/04 07:41:30;;;;;;;;;;;31.00;77.60;;;;;;5053187;28;19909;-75
2022/08/04 07:43:56;;;;;;;;;;;31.30;78.00;;;;;;5052940;28;20328;-75
2022/08/04 07:46:23;;;;;;;;;;;31.10;80.00;;;;;;5054024;28;19909;-75
2022/08/04 07:48:48;;;;;;;;;;;31.30;77.50;;;;;;5052620;28;19947;-75
2022/08/04 07:51:15;;;;;;;;;;;31.40;79.40;;;;;;5048287;28;19936;-75
2022/08/04 07:53:41;;;;;;;;;;;31.80;75.30;;;;;;5052345;28;19958;-75
2022/08/04 07:56:07;;;;;;;;;;;32.20;75.50;;;;;;5053690;28;19916;-75
2022/08/04 07:58:32;;;;;;;;;;;32.70;73.80;;;;;;5053353;28;19908;-75
2022/08/04 08:00:58;;;;;;;;;;;32.60;72.40;;;;;;5051956;28;19913;-75
2022/08/04 08:03:24;;;;;;;;;;;32.20;70.90;;;;;;5055152;28;20285;-75
2022/08/04 08:05:50;;;;;;;;;;;31.90;70.20;;;;;;5056532;28;19909;-75
2022/08/04 08:08:16;;;;;;;;;;;32.30;71.90;;;;;;5053049;28;19939;-75
2022/08/04 08:10:44;;;;;;;;;;;32.70;68.30;;;;;;5052862;28;19909;-75
2022/08/04 08:13:10;;;;;;;;;;;33.30;68.70;;;;;;5052094;28;20366;-75
2022/08/04 08:15:36;;;;;;;;;;;33.70;65.80;;;;;;5054078;28;19938;-76
2022/08/04 08:18:02;;;;;;;;;;;34.00;64.50;;;;;;5053580;28;19919;-76
2022/08/04 08:20:31;;;;;;;;;;;34.20;67.70;;;;;;5053931;28;19917;-75
2022/08/04 08:22:57;;;;;;;;;;;33.90;66.30;;;;;;5053375;28;20022;-75
2022/08/04 08:25:23;;;;;;;;;;;33.10;65.10;;;;;;5053150;28;20324;-75
2022/08/04 08:27:48;;;;;;;;;;;32.80;65.30;;;;;;5053473;28;19939;-75
2022/08/04 08:30:14;;;;;;;;;;;33.50;72.40;;;;;;5049994;28;20354;-75
2022/08/04 08:32:40;;;;;;;;;;;34.20;64.70;;;;;;5040364;28;20354;-75
2022/08/04 08:35:05;;;;;;;;;;;34.40;64.60;;;;;;5045401;28;19909;-75
2022/08/04 08:37:44;;;;;;;;;;;34.70;64.90;;;;;;5058313;28;19912;-75
2022/08/04 08:40:09;;;;;;;;;;;34.90;59.60;;;;;;5052475;28;19913;-75
2022/08/04 08:42:40;;;;;;;;;;;35.10;62.20;;;;;;5052702;28;20366;-75
2022/08/04 08:45:05;;;;;;;;;;;35.00;61.80;;;;;;5052269;28;19948;-75
2022/08/04 08:47:42;;;;;;;;;;;35.30;60.80;;;;;;5052959;28;20381;-74
2022/08/04 08:50:37;;;;;;;;;;;34.90;61.70;;;;;;5047148;28;19908;-75
2022/08/04 08:53:08;;;;;;;;;;;35.50;61.20;;;;;;5051191;28;20271;-74
2022/08/04 08:55:52;;;;;;;;;;;35.10;59.30;;;;;;5051979;28;20008;-74
2022/08/04 08:58:35;;;;;;;;;;;35.80;63.10;;;;;;5052168;28;20012;-74
2022/08/04 09:01:13;;;;;;;;;;;36.50;58.70;;;;;;5045845;28;19943;-75
2022/08/04 09:04:05;;;;;;;;;;;36.80;57.30;;;;;;5046225;28;20271;-75
2022/08/04 09:06:45;;;;;;;;;;;37.00;58.90;;;;;;5052224;28;19912;-74
2022/08/04 09:09:39;;;;;;;;;;;37.00;54.50;;;;;;5051725;28;19917;-74
2022/08/04 09:12:10;;;;;;;;;;;37.10;61.40;;;;;;5052178;28;20205;-74
2022/08/04 09:15:02;;;;;;;;;;;36.10;55.70;;;;;;5051537;28;19908;-74
2022/08/04 09:17:29;;;;;;;;;;;36.00;54.40;;;;;;5038487;28;19943;-74
2022/08/04 09:19:57;;;;;;;;;;;36.20;56.40;;;;;;5051682;28;20344;-74
2022/08/04 09:22:23;;;;;;;;;;;36.40;56.50;;;;;;5045217;28;20015;-74
2022/08/04 09:24:48;;;;;;;;;;;36.90;59.60;;;;;;5049938;28;20193;-75
2022/08/04 09:27:18;;;;;;;;;;;37.50;54.90;;;;;;5051853;28;19909;-75
2022/08/04 09:29:52;;;;;;;;;;;37.60;60.10;;;;;;5044716;28;19909;-75
2022/08/04 09:32:21;;;;;;;;;;;37.80;52.90;;;;;;5053376;28;19909;-75
2022/08/04 09:35:02;;;;;;;;;;;38.00;55.40;;;;;;5050604;28;19915;-75
2022/08/04 09:37:30;;;;;;;;;;;38.50;56.50;;;;;;5052047;28;19929;-75
2022/08/04 09:40:22;;;;;;;;;;;38.00;49.10;;;;;;5051970;28;19940;-75
2022/08/04 09:43:04;;;;;;;;;;;37.70;56.60;;;;;;5044695;28;19924;-75
2022/08/04 09:45:35;;;;;;;;;;;38.70;54.40;;;;;;5051375;28;19909;-75
2022/08/04 09:48:05;;;;;;;;;;;39.10;54.80;;;;;;5051252;28;19962;-75
2022/08/04 09:50:36;;;;;;;;;;;39.20;52.30;;;;;;5049514;28;20134;-75
2022/08/04 09:53:20;;;;;;;;;;;39.20;54.80;;;;;;5050397;28;20330;-76
2022/08/04 09:55:47;;;;;;;;;;;39.60;48.40;;;;;;5051374;28;19958;-75
2022/08/04 09:58:36;;;;;;;;;;;38.40;53.00;;;;;;5051032;28;20297;-75
2022/08/04 10:01:05;;;;;;;;;;;38.50;53.20;;;;;;5039116;28;19916;-75
2022/08/04 10:03:49;;;;;;;;;;;38.60;49.40;;;;;;5047346;28;20193;-75
2022/08/04 10:06:17;;;;;;;;;;;38.60;50.20;;;;;;5051017;28;19931;-75
2022/08/04 10:08:52;;;;;;;;;;;38.80;50.90;;;;;;5051029;28;19917;-75
2022/08/04 10:11:22;;;;;;;;;;;39.60;48.10;;;;;;5050968;28;20285;-76
2022/08/04 10:13:56;;;;;;;;;;;39.50;47.10;;;;;;5050693;28;19913;-75
2022/08/04 10:16:34;;;;;;;;;;;40.10;47.50;;;;;;5044629;28;20473;-76
2022/08/04 10:19:17;;;;;;;;;;;39.70;42.80;;;;;;5050678;28;20373;-76
2022/08/04 10:21:48;;;;;;;;;;;39.50;49.00;;;;;;5050919;28;19916;-75
2022/08/04 10:24:28;;;;;;;;;;;40.30;47.20;;;;;;5050806;28;19909;-76
2022/08/04 10:27:05;;;;;;;;;;;40.10;48.10;;;;;;5051034;28;19948;-76
2022/08/04 10:29:42;;;;;;;;;;;40.00;44.60;;;;;;5045134;28;19909;-76
2022/08/04 10:32:13;;;;;;;;;;;40.20;46.10;;;;;;5048132;28;20030;-75
2022/08/04 10:34:41;;;;;;;;;;;40.20;46.60;;;;;;5050064;28;20004;-75
2022/08/04 10:37:25;;;;;;;;;;;40.40;47.40;;;;;;5050653;28;19916;-76
2022/08/04 10:42:41;;;;;;;;;;;40.80;43.80;;;;;;5048706;28;19916;-76
2022/08/04 10:45:18;;;;;;;;;;;40.80;47.60;;;;;;5049771;28;19908;-76
2022/08/04 10:48:03;;;;;;;;;;;40.30;41.50;;;;;;5049409;28;19989;-76
2022/08/04 10:50:29;;;;;;;;;;;40.20;47.70;;;;;;5042661;28;19911;-76
2022/08/04 10:52:59;;;;;;;;;;;40.10;45.40;;;;;;5050224;28;19915;-76
2022/08/04 10:55:44;;;;;;;;;;;39.70;43.80;;;;;;5049583;28;19909;-76
2022/08/04 10:58:14;;;;;;;;;;;39.50;48.00;;;;;;5049738;28;19982;-76
2022/08/04 11:00:41;;;;;;;;;;;39.40;45.00;;;;;;5054749;28;20007;-76
2022/08/04 11:03:10;;;;;;;;;;;38.40;44.90;;;;;;5053621;28;19909;-76
2022/08/04 11:05:39;;;;;;;;;;;38.80;49.20;;;;;;5054567;28;20327;-76
2022/08/04 11:08:10;;;;;;;;;;;38.90;50.00;;;;;;5054058;28;19923;-76
2022/08/04 11:10:45;;;;;;;;;;;39.10;48.40;;;;;;5054687;28;19913;-76
2022/08/04 11:13:12;;;;;;;;;;;38.60;49.10;;;;;;5053865;28;19909;-76
2022/08/04 11:15:45;;;;;;;;;;;39.30;50.50;;;;;;5054568;28;19916;-76
2022/08/04 11:18:17;;;;;;;;;;;38.20;47.20;;;;;;5053757;28;20338;-76
2022/08/04 11:20:56;;;;;;;;;;;38.40;47.60;;;;;;5053330;28;19991;-76
2022/08/04 11:23:25;;;;;;;;;;;38.00;48.70;;;;;;5053655;28;19916;-76
2022/08/04 11:26:08;;;;;;;;;;;37.90;48.00;;;;;;5054736;28;20011;-75
2022/08/04 11:28:46;;;;;;;;;;;38.00;47.10;;;;;;5053832;28;19913;-76
2022/08/04 11:31:16;;;;;;;;;;;37.40;45.80;;;;;;5046203;28;20356;-76
2022/08/04 11:33:56;;;;;;;;;;;37.20;43.90;;;;;;5053238;28;19915;-76
2022/08/04 11:36:42;;;;;;;;;;;37.60;50.30;;;;;;5053728;28;20433;-76
2022/08/04 11:39:10;;;;;;;;;;;38.20;45.10;;;;;;5052349;28;20366;-76
2022/08/04 11:41:41;;;;;;;;;;;38.40;48.60;;;;;;5053738;28;19966;-76
2022/08/04 11:44:10;;;;;;;;;;;38.00;48.40;;;;;;5053593;28;19908;-76
2022/08/04 11:46:46;;;;;;;;;;;38.40;44.40;;;;;;5053910;28;20284;-76
2022/08/04 11:49:35;;;;;;;;;;;38.10;46.40;;;;;;5052617;28;20265;-77
2022/08/04 11:52:02;;;;;;;;;;;38.60;44.50;;;;;;5046610;28;19916;-76
2022/08/04 11:54:27;;;;;;;;;;;38.40;42.00;;;;;;5052860;28;19909;-75
2022/08/04 11:56:54;;;;;;;;;;;38.40;48.50;;;;;;5053493;28;20424;-76
2022/08/04 11:59:21;;;;;;;;;;;38.10;47.00;;;;;;5053362;28;19991;-76
2022/08/04 12:01:54;;;;;;;;;;;37.50;45.70;;;;;;5050898;28;19954;-75
2022/08/04 12:04:38;;;;;;;;;;;37.10;45.60;;;;;;5051358;28;19912;-75
2022/08/04 12:07:09;;;;;;;;;;;37.10;46.10;;;;;;5049155;28;19916;-75
2022/08/04 12:09:53;;;;;;;;;;;37.50;44.40;;;;;;5052733;28;19924;-75
2022/08/04 12:12:19;;;;;;;;;;;38.40;43.30;;;;;;5052844;28;20015;-75
2022/08/04 12:14:52;;;;;;;;;;;38.20;44.10;;;;;;5052736;28;19913;-76
2022/08/04 12:17:23;;;;;;;;;;;37.40;42.50;;;;;;5052901;28;19912;-75
2022/08/04 12:19:53;;;;;;;;;;;37.90;48.70;;;;;;5052777;28;19920;-75
2022/08/04 12:22:23;;;;;;;;;;;38.50;44.50;;;;;;5052981;28;20313;-76
2022/08/04 12:24:53;;;;;;;;;;;38.50;45.10;;;;;;5046365;28;19966;-76
2022/08/04 12:27:20;;;;;;;;;;;37.90;40.30;;;;;;5046404;28;19936;-76
2022/08/04 12:29:46;;;;;;;;;;;37.40;40.80;;;;;;5051147;28;19956;-76
2022/08/04 12:32:20;;;;;;;;;;;37.10;45.10;;;;;;5057984;28;20484;-76
2022/08/04 12:34:57;;;;;;;;;;;38.50;47.80;;;;;;5046711;28;19978;-76
2022/08/04 12:37:28;;;;;;;;;;;37.30;45.00;;;;;;5052459;28;19966;-76
2022/08/04 12:39:55;;;;;;;;;;;35.10;46.30;;;;;;5052303;28;20393;-76
2022/08/04 12:42:32;;;;;;;;;;;39.00;41.20;;;;;;5052549;28;20366;-76
2022/08/04 12:45:03;;;;;;;;;;;36.80;45.90;;;;;;5052525;28;20008;-76
2022/08/04 12:47:29;;;;;;;;;;;37.30;44.40;;;;;;5052817;28;19963;-76
2022/08/04 12:49:59;;;;;;;;;;;41.10;37.10;;;;;;5050265;28;19913;-76
2022/08/04 12:52:25;;;;;;;;;;;42.70;40.00;;;;;;5055045;28;20357;-76
2022/08/04 12:54:52;;;;;;;;;;;43.00;41.70;;;;;;5053830;28;19931;-76
2022/08/04 12:57:17;;;;;;;;;;;43.00;35.60;;;;;;5052985;28;19913;-76
2022/08/04 12:59:43;;;;;;;;;;;43.90;35.70;;;;;;5050408;28;19958;-76
2022/08/04 13:02:15;;;;;;;;;;;44.20;35.80;;;;;;5049345;28;19920;-76
2022/08/04 13:04:42;;;;;;;;;;;43.30;34.70;;;;;;5051458;28;20584;-76
2022/08/04 13:07:22;;;;;;;;;;;42.90;35.20;;;;;;5052422;28;19916;-76
2022/08/04 13:09:48;;;;;;;;;;;43.10;38.60;;;;;;5044931;28;19917;-76
2022/08/04 13:12:16;;;;;;;;;;;43.70;35.40;;;;;;5049685;28;19958;-76
2022/08/04 13:14:43;;;;;;;;;;;42.10;36.80;;;;;;5051735;28;19954;-76
2022/08/04 13:17:09;;;;;;;;;;;43.40;35.90;;;;;;5052341;28;20332;-76
2022/08/04 13:19:36;;;;;;;;;;;40.50;38.70;;;;;;5050935;28;20342;-76
2022/08/04 13:22:02;;;;;;;;;;;39.00;40.00;;;;;;5050794;28;19908;-76
2022/08/04 13:24:28;;;;;;;;;;;41.50;36.40;;;;;;5049858;28;19909;-76
2022/08/04 13:27:09;;;;;;;;;;;39.20;42.30;;;;;;5050998;28;19917;-76
2022/08/04 13:29:35;;;;;;;;;;;41.80;36.60;;;;;;5050698;28;19909;-76
2022/08/04 13:32:01;;;;;;;;;;;42.60;35.00;;;;;;5042363;28;20346;-76
2022/08/04 13:34:27;;;;;;;;;;;43.40;35.20;;;;;;5050430;28;19915;-76
2022/08/04 13:36:55;;;;;;;;;;;43.90;35.80;;;;;;5050452;28;20296;-76
2022/08/04 13:39:22;;;;;;;;;;;44.20;33.40;;;;;;5051133;28;19909;-76
2022/08/04 13:41:51;;;;;;;;;;;43.40;35.80;;;;;;5050955;28;19913;-76
2022/08/04 13:44:18;;;;;;;;;;;43.10;38.90;;;;;;5050799;28;19916;-76
2022/08/04 13:47:04;;;;;;;;;;;43.50;35.80;;;;;;5051650;28;19926;-76
2022/08/04 13:49:30;;;;;;;;;;;44.20;34.70;;;;;;5048966;28;19924;-76
2022/08/04 13:51:58;;;;;;;;;;;42.50;37.20;;;;;;5050579;28;19909;-76
2022/08/04 13:54:44;;;;;;;;;;;42.10;38.30;;;;;;5042401;28;19909;-76
2022/08/04 13:57:14;;;;;;;;;;;42.20;34.50;;;;;;5051361;28;19920;-76
2022/08/04 13:59:42;;;;;;;;;;;42.00;35.20;;;;;;5049754;28;19928;-76
2022/08/04 14:02:15;;;;;;;;;;;42.30;38.10;;;;;;5048560;28;20358;-76
2022/08/04 14:04:48;;;;;;;;;;;42.80;37.50;;;;;;5043982;28;20365;-76
2022/08/04 14:07:15;;;;;;;;;;;43.50;34.30;;;;;;5051002;28;19948;-76
2022/08/04 14:09:41;;;;;;;;;;;43.70;32.40;;;;;;5050117;28;20289;-76
2022/08/04 14:12:16;;;;;;;;;;;43.00;33.00;;;;;;5050683;28;20014;-77
2022/08/04 14:14:49;;;;;;;;;;;43.00;33.80;;;;;;5050535;28;19947;-77
2022/08/04 14:17:16;;;;;;;;;;;42.40;33.30;;;;;;5049781;28;19913;-77
2022/08/04 14:19:49;;;;;;;;;;;42.80;33.90;;;;;;5049575;28;19908;-77
2022/08/04 14:22:34;;;;;;;;;;;43.40;38.40;;;;;;5050589;28;20355;-77
2022/08/04 14:25:05;;;;;;;;;;;42.50;37.40;;;;;;5050438;28;19908;-77
2022/08/04 14:27:44;;;;;;;;;;;42.90;35.60;;;;;;5050816;28;19909;-77
2022/08/04 14:30:48;;;;;;;;;;;43.50;34.20;;;;;;5044511;28;19909;-76
2022/08/04 14:33:13;;;;;;;;;;;43.40;32.30;;;;;;5048124;28;20385;-76
2022/08/04 14:35:39;;;;;;;;;;;41.80;38.00;;;;;;5048518;28;19999;-76
2022/08/04 14:38:06;;;;;;;;;;;42.50;37.40;;;;;;5049127;28;19946;-77
2022/08/04 14:40:33;;;;;;;;;;;43.10;34.60;;;;;;5049649;28;19955;-77
2022/08/04 14:42:59;;;;;;;;;;;43.90;36.30;;;;;;5050189;28;19917;-77
2022/08/04 14:45:43;;;;;;;;;;;43.40;32.70;;;;;;5048882;28;20282;-77
2022/08/04 14:48:09;;;;;;;;;;;43.50;38.30;;;;;;5044684;28;20315;-76